createdAt,value
2022-11-29T00:01:47.338Z,5.26
2022-11-29T00:04:32.609Z,5.27
2022-11-29T00:07:18.318Z,5.28
2022-11-29T00:10:04.263Z,5.25
2022-11-29T00:12:50.082Z,5.22
2022-11-29T00:15:37.515Z,5.23
2022-11-29T00:18:22.917Z,5.20
2022-11-29T00:21:09.198Z,5.21
2022-11-29T00:23:55.314Z,5.24
2022-11-29T00:26:41.008Z,5.23
2022-11-29T00:29:28.056Z,5.22
2022-11-29T00:32:13.744Z,5.19
2022-11-29T00:34:59.728Z,5.17
2022-11-29T00:37:45.993Z,5.16
2022-11-29T00:40:31.186Z,5.16
2022-11-29T00:43:16.498Z,5.13
2022-11-29T00:46:03.229Z,5.14
2022-11-29T00:48:48.701Z,5.17
2022-11-29T00:51:34.061Z,5.17
2022-11-29T00:54:19.762Z,5.18
2022-11-29T00:57:05.236Z,5.19
2022-11-29T00:59:50.457Z,5.22
2022-11-29T01:02:36.001Z,5.22
2022-11-29T01:05:21.215Z,5.18
2022-11-29T01:08:06.917Z,5.15
2022-11-29T01:11:02.545Z,5.08
2022-11-29T01:13:49.244Z,5.04
2022-11-29T01:16:35.490Z,5.04
2022-11-29T01:19:20.765Z,5.02
2022-11-29T01:22:06.065Z,5.03
2022-11-29T01:24:51.477Z,5.05
2022-11-29T01:27:36.940Z,5.06
2022-11-29T01:30:22.308Z,5.06
2022-11-29T01:33:07.518Z,5.08
2022-11-29T01:35:54.820Z,5.07
2022-11-29T01:38:40.611Z,5.09
2022-11-29T01:41:29.311Z,5.11
2022-11-29T01:44:14.649Z,5.14
2022-11-29T01:46:59.896Z,5.13
2022-11-29T01:49:49.073Z,5.17
2022-11-29T01:52:34.809Z,5.16
2022-11-29T01:55:20.555Z,5.18
2022-11-29T01:58:07.972Z,5.21
2022-11-29T02:00:53.330Z,5.22
2022-11-29T02:03:38.697Z,5.22
2022-11-29T02:06:24.902Z,5.17
2022-11-29T02:09:22.183Z,5.18
2022-11-29T02:12:23.115Z,5.18
2022-11-29T02:15:39.464Z,5.14
2022-11-29T02:18:51.380Z,5.08
2022-11-29T02:21:52.258Z,5.09
2022-11-29T02:24:59.269Z,5.06
2022-11-29T02:28:10.863Z,5.09
2022-11-29T02:31:33.628Z,5.13
2022-11-29T02:34:37.927Z,5.15
2022-11-29T02:37:42.120Z,5.14
2022-11-29T02:40:46.566Z,5.12
2022-11-29T02:43:44.158Z,5.11
2022-11-29T02:46:35.525Z,5.08
2022-11-29T02:49:45.055Z,5.07
2022-11-29T02:52:52.149Z,5.04
2022-11-29T02:55:46.922Z,5.03
2022-11-29T02:58:54.473Z,5.02
2022-11-29T03:02:15.205Z,5.02
2022-11-29T03:05:20.220Z,4.94
2022-11-29T03:08:20.788Z,4.86
2022-11-29T03:11:44.562Z,4.81
2022-11-29T03:15:03.820Z,4.81
2022-11-29T03:18:08.172Z,4.77
2022-11-29T03:21:24.742Z,4.72
2022-11-29T03:24:21.181Z,4.65
2022-11-29T03:27:30.260Z,4.57
2022-11-29T03:30:19.181Z,4.52
2022-11-29T03:33:08.522Z,4.45
2022-11-29T03:36:39.005Z,4.41
2022-11-29T03:39:42.771Z,4.28
2022-11-29T03:42:47.979Z,4.25
2022-11-29T03:46:00.908Z,4.27
2022-11-29T03:48:52.423Z,4.37
2022-11-29T03:51:55.300Z,4.38
2022-11-29T03:55:03.489Z,4.35
2022-11-29T03:58:20.780Z,4.35
2022-11-29T04:01:21.641Z,4.38
2022-11-29T04:04:38.238Z,4.48
2022-11-29T04:07:48.133Z,4.57
2022-11-29T04:10:58.461Z,4.63
2022-11-29T04:14:28.429Z,4.70
2022-11-29T04:17:41.194Z,4.73
2022-11-29T04:20:58.610Z,4.74
2022-11-29T04:24:22.571Z,4.75
2022-11-29T04:27:13.804Z,4.78
2022-11-29T04:30:24.192Z,4.78
2022-11-29T04:33:34.665Z,4.77
2022-11-29T04:36:20.294Z,4.80
2022-11-29T04:39:35.156Z,4.84
2022-11-29T04:42:37.761Z,4.91
2022-11-29T04:45:44.408Z,4.96
2022-11-29T04:49:02.081Z,4.99
2022-11-29T04:52:05.913Z,4.97
2022-11-29T04:55:19.422Z,5.00
2022-11-29T04:58:12.366Z,5.02
2022-11-29T05:01:07.111Z,5.06
2022-11-29T05:04:01.586Z,5.08
2022-11-29T05:07:13.658Z,5.10
2022-11-29T05:09:59.729Z,5.12
2022-11-29T05:13:04.068Z,5.12
2022-11-29T05:16:00.420Z,5.10
2022-11-29T05:19:13.616Z,5.11
2022-11-29T05:22:13.290Z,5.11
2022-11-29T05:25:02.669Z,5.09
2022-11-29T05:28:09.817Z,5.08
2022-11-29T05:31:14.669Z,5.06
2022-11-29T05:34:34.564Z,5.04
2022-11-29T05:37:32.739Z,5.04
2022-11-29T05:40:28.318Z,4.98
2022-11-29T05:43:47.122Z,4.94
2022-11-29T05:46:50.629Z,4.86
2022-11-29T05:49:58.055Z,4.76
2022-11-29T05:53:04.957Z,4.72
2022-11-29T05:56:18.004Z,4.69
2022-11-29T05:59:18.381Z,4.65
2022-11-29T06:02:25.243Z,4.58
2022-11-29T06:05:32.416Z,4.46
2022-11-29T06:08:41.178Z,4.33
2022-11-29T06:11:38.142Z,4.22
2022-11-29T06:14:34.349Z,3.97
2022-11-29T06:17:37.287Z,3.71
2022-11-29T06:20:36.085Z,3.49
2022-11-29T06:23:41.432Z,3.26
2022-11-29T06:26:45.110Z,3.05
2022-11-29T06:29:36.893Z,3.08
2022-11-29T06:32:44.625Z,3.11
2022-11-29T06:35:39.330Z,3.09
2022-11-29T06:38:30.476Z,3.08
2022-11-29T06:41:20.921Z,2.97
2022-11-29T06:44:07.115Z,2.91
2022-11-29T06:47:06.876Z,2.89
2022-11-29T06:49:58.277Z,2.89
2022-11-29T06:53:20.925Z,2.92
2022-11-29T06:56:20.978Z,2.95
2022-11-29T06:59:18.681Z,2.94
2022-11-29T07:02:25.854Z,2.83
2022-11-29T07:05:21.075Z,2.84
2022-11-29T07:08:14.046Z,2.77
2022-11-29T07:11:00.633Z,2.68
2022-11-29T07:13:46.193Z,2.60
2022-11-29T07:16:43.683Z,2.62
2022-11-29T07:19:46.006Z,2.77
2022-11-29T07:22:37.788Z,2.85
2022-11-29T07:25:58.484Z,3.05
2022-11-29T07:29:07.110Z,3.21
2022-11-29T07:31:52.640Z,3.30
2022-11-29T07:35:00.572Z,3.38
2022-11-29T07:38:03.517Z,3.42
2022-11-29T07:41:06.794Z,3.45
2022-11-29T07:44:04.780Z,3.51
2022-11-29T07:46:50.094Z,3.55
2022-11-29T07:49:35.401Z,3.66
2022-11-29T07:52:20.773Z,3.77
2022-11-29T07:55:06.593Z,3.86
2022-11-29T07:57:52.663Z,3.92
2022-11-29T08:00:38.745Z,3.97
2022-11-29T08:03:24.039Z,4.02
2022-11-29T08:06:09.476Z,4.03
2022-11-29T08:08:57.943Z,4.06
2022-11-29T08:11:44.792Z,4.15
2022-11-29T08:14:33.524Z,4.25
2022-11-29T08:17:19.181Z,4.31
2022-11-29T08:20:06.027Z,4.39
2022-11-29T08:22:59.617Z,4.47
2022-11-29T08:25:46.037Z,4.52
2022-11-29T08:28:31.241Z,4.58
2022-11-29T08:31:16.696Z,4.63
2022-11-29T08:34:02.024Z,4.67
2022-11-29T08:36:47.702Z,4.69
2022-11-29T08:39:33.168Z,4.74
2022-11-29T08:42:18.512Z,4.75
2022-11-29T08:45:04.473Z,4.74
2022-11-29T08:47:49.713Z,4.76
2022-11-29T08:50:35.306Z,4.77
2022-11-29T08:53:39.247Z,4.82
2022-11-29T08:57:10.017Z,4.88
2022-11-29T08:59:30.000Z,4.94
2022-11-29T09:02:15.498Z,4.99
2022-11-29T09:05:00.775Z,5.04
2022-11-29T09:07:47.043Z,5.08
2022-11-29T09:10:32.750Z,5.11
2022-11-29T09:13:18.284Z,5.17
2022-11-29T09:16:09.033Z,5.20
2022-11-29T09:18:56.102Z,5.25
2022-11-29T09:21:41.421Z,5.26
2022-11-29T09:24:26.720Z,5.30
2022-11-29T09:27:12.333Z,5.32
2022-11-29T09:29:57.545Z,5.34
2022-11-29T09:32:43.182Z,5.35
2022-11-29T09:35:31.026Z,5.38
2022-11-29T09:38:16.513Z,5.44
2022-11-29T09:41:41.965Z,5.49
2022-11-29T09:44:48.758Z,5.55
2022-11-29T09:47:53.220Z,5.60
2022-11-29T09:50:44.990Z,5.67
2022-11-29T09:53:46.255Z,5.73
2022-11-29T09:56:40.826Z,5.77
2022-11-29T09:59:32.542Z,5.83
2022-11-29T10:02:32.213Z,5.89
2022-11-29T10:05:46.972Z,5.96
2022-11-29T10:08:58.954Z,6.01
2022-11-29T10:11:56.704Z,6.07
2022-11-29T10:15:08.925Z,6.10
2022-11-29T10:18:10.429Z,6.15
2022-11-29T10:20:58.675Z,6.20
2022-11-29T10:23:48.703Z,6.25
2022-11-29T10:26:35.443Z,6.34
2022-11-29T10:29:22.937Z,6.39
2022-11-29T10:32:16.108Z,6.43
2022-11-29T10:35:02.379Z,6.45
2022-11-29T10:38:14.646Z,6.46
2022-11-29T10:41:04.507Z,6.46
2022-11-29T10:43:52.136Z,6.53
2022-11-29T10:46:38.734Z,6.57
2022-11-29T10:49:28.135Z,6.63
2022-11-29T10:52:20.858Z,6.66
2022-11-29T10:55:12.617Z,6.73
2022-11-29T10:58:11.757Z,6.83
2022-11-29T11:01:02.229Z,6.84
2022-11-29T11:03:53.456Z,6.87
2022-11-29T11:06:56.321Z,6.94
2022-11-29T11:09:51.082Z,7.02
2022-11-29T11:12:37.170Z,7.10
2022-11-29T11:15:32.939Z,7.13
2022-11-29T11:18:23.859Z,7.15
2022-11-29T11:21:12.147Z,7.17
2022-11-29T11:24:02.059Z,7.23
2022-11-29T11:26:47.497Z,7.29
2022-11-29T11:29:52.800Z,7.38
2022-11-29T11:32:38.351Z,7.40
2022-11-29T11:35:24.451Z,7.45
2022-11-29T11:38:17.746Z,7.52
2022-11-29T11:41:23.037Z,7.57
2022-11-29T11:44:46.439Z,7.64
2022-11-29T11:47:33.618Z,7.68
2022-11-29T11:50:31.152Z,7.72
2022-11-29T11:53:27.642Z,7.73
2022-11-29T11:56:14.523Z,7.72
2022-11-29T11:59:00.314Z,7.75
2022-11-29T12:01:45.984Z,7.76
2022-11-29T12:04:37.377Z,7.74
2022-11-29T12:08:06.001Z,7.73
2022-11-29T12:10:41.571Z,7.72
2022-11-29T12:13:31.511Z,7.69
2022-11-29T12:16:27.547Z,7.68
2022-11-29T12:19:31.608Z,7.63
2022-11-29T12:22:25.200Z,7.57
2022-11-29T12:25:19.569Z,7.48
2022-11-29T12:28:14.654Z,7.45
2022-11-29T12:31:35.383Z,7.41
2022-11-29T12:34:30.057Z,7.37
2022-11-29T12:37:24.449Z,7.34
2022-11-29T12:40:33.922Z,7.33
2022-11-29T12:43:41.473Z,7.32
2022-11-29T12:46:29.602Z,7.30
2022-11-29T12:49:23.441Z,7.30
2022-11-29T12:52:20.331Z,7.28
2022-11-29T12:55:23.332Z,7.28
2022-11-29T12:58:19.179Z,7.24
2022-11-29T13:01:15.866Z,7.23
2022-11-29T13:04:27.753Z,7.20
2022-11-29T13:07:38.154Z,7.22
2022-11-29T13:10:42.677Z,7.24
2022-11-29T13:13:27.967Z,7.26
2022-11-29T13:16:31.258Z,7.27
2022-11-29T13:19:53.529Z,7.28
2022-11-29T13:22:54.870Z,7.26
2022-11-29T13:25:54.266Z,7.25
2022-11-29T13:28:42.982Z,7.24
2022-11-29T13:31:29.127Z,7.23
2022-11-29T13:34:40.895Z,7.21
2022-11-29T13:37:50.590Z,7.17
2022-11-29T13:40:41.896Z,7.15
2022-11-29T13:43:42.287Z,7.13
2022-11-29T13:46:36.323Z,7.12
2022-11-29T13:49:57.126Z,7.11
2022-11-29T13:52:48.145Z,7.08
2022-11-29T13:55:34.538Z,7.05
2022-11-29T13:58:32.943Z,7.05
2022-11-29T14:01:18.396Z,7.03
2022-11-29T14:04:16.770Z,7.02
2022-11-29T14:07:04.165Z,7.02
2022-11-29T14:09:51.845Z,7.02
2022-11-29T14:12:48.203Z,7.02
2022-11-29T14:15:33.901Z,7.04
2022-11-29T14:18:37.673Z,7.03
2022-11-29T14:21:23.148Z,7.05
2022-11-29T14:24:35.366Z,7.06
2022-11-29T14:27:20.889Z,7.03
2022-11-29T14:30:40.845Z,7.01
2022-11-29T14:33:50.771Z,7.01
2022-11-29T14:36:42.459Z,6.97
2022-11-29T14:39:55.151Z,6.94
2022-11-29T14:42:49.955Z,6.93
2022-11-29T14:45:35.709Z,6.90
2022-11-29T14:48:28.239Z,6.88
2022-11-29T14:51:16.804Z,6.83
2022-11-29T14:54:16.108Z,6.77
2022-11-29T14:57:39.437Z,6.73
2022-11-29T15:00:28.166Z,6.69
2022-11-29T15:03:16.867Z,6.64
2022-11-29T15:06:45.143Z,6.60
2022-11-29T15:09:34.884Z,6.55
2022-11-29T15:12:27.803Z,6.51
2022-11-29T15:15:13.354Z,6.49
2022-11-29T15:18:10.951Z,6.49
2022-11-29T15:20:59.754Z,6.49
2022-11-29T15:23:45.135Z,6.46
2022-11-29T15:26:32.956Z,6.39
2022-11-29T15:29:19.947Z,6.34
2022-11-29T15:32:06.554Z,6.27
2022-11-29T15:34:54.894Z,6.20
2022-11-29T15:37:45.604Z,6.08
2022-11-29T15:40:35.359Z,5.99
2022-11-29T15:43:30.361Z,5.88
2022-11-29T15:46:21.608Z,5.71
2022-11-29T15:49:24.806Z,5.54
2022-11-29T15:52:20.620Z,5.37
2022-11-29T15:55:12.800Z,5.21
2022-11-29T15:58:06.999Z,5.04
2022-11-29T16:00:55.296Z,4.90
2022-11-29T16:03:45.599Z,4.76
2022-11-29T16:06:42.609Z,4.56
2022-11-29T16:09:42.110Z,4.39
2022-11-29T16:12:27.795Z,4.29
2022-11-29T16:15:26.805Z,4.20
2022-11-29T16:18:20.875Z,4.10
2022-11-29T16:21:08.146Z,3.98
2022-11-29T16:23:54.451Z,3.86
2022-11-29T16:26:44.150Z,3.87
2022-11-29T16:29:31.144Z,3.88
2022-11-29T16:32:32.494Z,3.86
2022-11-29T16:35:24.716Z,3.79
2022-11-29T16:38:19.983Z,3.74
2022-11-29T16:41:08.953Z,3.61
2022-11-29T16:43:55.576Z,3.50
2022-11-29T16:46:41.019Z,3.45
2022-11-29T16:49:35.705Z,3.40
2022-11-29T16:52:27.460Z,3.27
2022-11-29T16:55:13.216Z,3.21
2022-11-29T16:57:58.991Z,3.13
2022-11-29T17:00:44.300Z,3.12
2022-11-29T17:03:29.642Z,3.07
2022-11-29T17:06:16.849Z,3.02
2022-11-29T17:09:02.136Z,2.95
2022-11-29T17:11:47.670Z,2.94
2022-11-29T17:14:33.574Z,2.88
2022-11-29T17:17:19.730Z,2.83
2022-11-29T17:20:07.552Z,2.78
2022-11-29T17:22:53.242Z,2.76
2022-11-29T17:25:38.779Z,2.69
2022-11-29T17:28:24.554Z,2.58
2022-11-29T17:31:24.117Z,2.48
2022-11-29T17:34:10.329Z,2.38
2022-11-29T17:36:55.953Z,2.33
2022-11-29T17:39:44.852Z,2.36
2022-11-29T17:42:30.604Z,2.35
2022-11-29T17:45:16.155Z,2.39
2022-11-29T17:48:02.051Z,2.40
2022-11-29T17:50:47.347Z,2.43
2022-11-29T17:53:33.568Z,2.40
2022-11-29T17:56:21.904Z,2.33
2022-11-29T17:59:07.639Z,2.31
2022-11-29T18:01:53.062Z,2.31
2022-11-29T18:04:42.049Z,2.35
2022-11-29T18:07:27.411Z,2.32
2022-11-29T18:10:12.809Z,2.26
2022-11-29T18:12:58.088Z,2.24
2022-11-29T18:15:43.572Z,2.25
2022-11-29T18:18:29.243Z,2.26
2022-11-29T18:21:14.733Z,2.27
2022-11-29T18:24:02.176Z,2.24
2022-11-29T18:26:48.109Z,2.28
2022-11-29T18:29:38.929Z,2.28
2022-11-29T18:32:25.068Z,2.27
2022-11-29T18:35:12.013Z,2.25
2022-11-29T18:38:14.904Z,2.28
2022-11-29T18:41:07.311Z,2.30
2022-11-29T18:43:58.972Z,2.35
2022-11-29T18:46:45.473Z,2.40
2022-11-29T18:49:31.121Z,2.41
2022-11-29T18:52:16.383Z,2.41
2022-11-29T18:55:01.828Z,2.40
2022-11-29T18:57:51.389Z,2.39
2022-11-29T19:00:37.050Z,2.40
2022-11-29T19:03:22.462Z,2.40
2022-11-29T19:06:11.054Z,2.43
2022-11-29T19:08:59.518Z,2.46
2022-11-29T19:11:45.156Z,2.42
2022-11-29T19:14:32.437Z,2.41
2022-11-29T19:17:18.845Z,2.38
2022-11-29T19:20:04.280Z,2.37
2022-11-29T19:22:49.974Z,2.36
2022-11-29T19:25:35.365Z,2.33
2022-11-29T19:28:20.955Z,2.35
2022-11-29T19:31:08.179Z,2.38
2022-11-29T19:33:55.396Z,2.37
2022-11-29T19:36:44.991Z,2.37
2022-11-29T19:39:31.383Z,2.37
2022-11-29T19:42:16.844Z,2.37
2022-11-29T19:45:16.449Z,2.35
2022-11-29T19:48:03.036Z,2.38
2022-11-29T19:50:48.982Z,2.38
2022-11-29T19:53:35.121Z,2.39
2022-11-29T19:56:20.927Z,2.37
2022-11-29T19:59:08.117Z,2.33
2022-11-29T20:01:53.681Z,2.34
2022-11-29T20:04:38.985Z,2.41
2022-11-29T20:07:24.428Z,2.42
2022-11-29T20:10:10.042Z,2.33
2022-11-29T20:12:55.542Z,2.30
2022-11-29T20:15:40.863Z,2.29
2022-11-29T20:18:30.807Z,2.25
2022-11-29T20:21:35.637Z,2.22
2022-11-29T20:24:21.103Z,2.16
2022-11-29T20:27:06.379Z,2.17
2022-11-29T20:29:51.556Z,2.18
2022-11-29T20:32:37.339Z,2.18
2022-11-29T20:35:23.455Z,2.19
2022-11-29T20:38:31.043Z,2.20
2022-11-29T20:41:38.719Z,2.18
2022-11-29T20:44:44.894Z,2.13
2022-11-29T20:47:56.788Z,2.08
2022-11-29T20:50:45.027Z,2.10
2022-11-29T20:53:30.564Z,2.09
2022-11-29T20:56:15.967Z,2.10
2022-11-29T20:59:01.342Z,2.12
2022-11-29T21:01:46.864Z,2.04
2022-11-29T21:04:32.233Z,1.99
2022-11-29T21:07:17.842Z,1.97
2022-11-29T21:10:04.721Z,1.95
2022-11-29T21:12:50.475Z,1.92
2022-11-29T21:15:36.498Z,1.88
2022-11-29T21:18:28.136Z,1.99
2022-11-29T21:21:25.401Z,2.01
2022-11-29T21:24:30.501Z,2.01
2022-11-29T21:27:21.152Z,2.04
2022-11-29T21:30:14.068Z,2.05
2022-11-29T21:32:59.725Z,2.07
2022-11-29T21:35:45.359Z,2.05
2022-11-29T21:38:30.877Z,2.05
2022-11-29T21:41:16.521Z,2.01
2022-11-29T21:44:07.073Z,2.04
2022-11-29T21:46:53.325Z,2.06
2022-11-29T21:49:39.397Z,2.08
2022-11-29T21:52:24.706Z,2.07
2022-11-29T21:55:10.523Z,2.06
2022-11-29T21:57:55.928Z,2.04
2022-11-29T22:00:43.173Z,2.05
2022-11-29T22:03:28.727Z,2.14
2022-11-29T22:06:18.423Z,2.16
2022-11-29T22:09:05.135Z,2.21
2022-11-29T22:11:50.850Z,2.23
2022-11-29T22:14:36.377Z,2.21
2022-11-29T22:17:21.517Z,2.22
2022-11-29T22:20:07.651Z,2.26
2022-11-29T22:22:58.430Z,2.28
2022-11-29T22:25:44.153Z,2.25
2022-11-29T22:28:29.535Z,2.26
2022-11-29T22:31:15.082Z,2.27
2022-11-29T22:34:00.836Z,2.28
2022-11-29T22:36:46.271Z,2.30
2022-11-29T22:39:31.665Z,2.35
2022-11-29T22:42:16.974Z,2.38
2022-11-29T22:45:04.171Z,2.40
2022-11-29T22:47:49.632Z,2.45
2022-11-29T22:50:35.002Z,2.50
2022-11-29T22:53:20.240Z,2.52
2022-11-29T22:56:08.421Z,2.52
2022-11-29T22:58:54.663Z,2.50
2022-11-29T23:01:41.808Z,2.45
2022-11-29T23:04:27.276Z,2.43
2022-11-29T23:07:12.904Z,2.45
2022-11-29T23:09:58.293Z,2.43
2022-11-29T23:12:44.639Z,2.44
2022-11-29T23:15:29.893Z,2.42
2022-11-29T23:18:15.347Z,2.47
2022-11-29T23:21:06.556Z,2.51
2022-11-29T23:23:56.388Z,2.56
2022-11-29T23:26:45.781Z,2.62
2022-11-29T23:29:31.075Z,2.66
2022-11-29T23:32:16.469Z,2.66
2022-11-29T23:35:01.849Z,2.60
2022-11-29T23:37:47.245Z,2.56
2022-11-29T23:40:33.436Z,2.48
2022-11-29T23:43:18.913Z,2.41
2022-11-29T23:46:17.743Z,2.37
2022-11-29T23:49:03.465Z,2.27
2022-11-29T23:51:49.186Z,2.17
2022-11-29T23:54:34.579Z,2.15
2022-11-29T23:57:20.053Z,2.12
